createdAt,value
2023-01-19T00:00:08.458Z,0.00
2023-01-19T00:01:08.428Z,0.00
2023-01-19T00:02:08.403Z,0.00
2023-01-19T00:03:08.396Z,0.00
2023-01-19T00:04:08.374Z,0.00
2023-01-19T00:05:08.364Z,0.00
2023-01-19T00:06:08.453Z,0.00
2023-01-19T00:07:08.357Z,0.00
2023-01-19T00:08:08.341Z,0.00
2023-01-19T00:09:08.332Z,0.00
2023-01-19T00:10:08.346Z,0.00
2023-01-19T00:11:08.318Z,0.00
2023-01-19T00:12:08.315Z,0.00
2023-01-19T00:13:08.315Z,0.00
2023-01-19T00:14:08.303Z,0.00
2023-01-19T00:15:08.275Z,0.00
2023-01-19T00:16:08.334Z,0.00
2023-01-19T00:17:08.251Z,0.00
2023-01-19T00:18:10.581Z,0.00
2023-01-19T00:19:08.260Z,0.00
2023-01-19T00:20:08.235Z,0.00
2023-01-19T00:21:08.229Z,0.00
2023-01-19T00:22:08.211Z,0.00
2023-01-19T00:23:08.459Z,0.00
2023-01-19T00:24:08.202Z,0.00
2023-01-19T00:25:08.184Z,0.00
2023-01-19T00:26:08.180Z,0.00
2023-01-19T00:27:08.190Z,0.00
2023-01-19T00:28:08.171Z,0.00
2023-01-19T00:29:08.137Z,0.00
2023-01-19T00:30:08.138Z,0.00
2023-01-19T00:31:08.188Z,0.00
2023-01-19T00:32:08.133Z,0.00
2023-01-19T00:33:08.115Z,0.00
2023-01-19T00:34:08.094Z,0.00
2023-01-19T00:35:08.122Z,0.00
2023-01-19T00:36:08.083Z,0.00
2023-01-19T00:37:08.084Z,0.00
2023-01-19T00:38:08.056Z,0.00
2023-01-19T00:39:08.057Z,0.00
2023-01-19T00:40:08.058Z,0.00
2023-01-19T00:41:08.037Z,0.00
2023-01-19T00:42:08.059Z,0.00
2023-01-19T00:43:08.014Z,0.00
2023-01-19T00:44:08.009Z,0.00
2023-01-19T00:45:07.983Z,0.00
2023-01-19T00:46:08.029Z,0.00
2023-01-19T00:47:07.995Z,0.00
2023-01-19T00:48:07.978Z,0.00
2023-01-19T00:49:07.953Z,0.00
2023-01-19T00:50:07.945Z,0.00
2023-01-19T00:51:07.940Z,0.00
2023-01-19T00:52:07.958Z,0.00
2023-01-19T00:53:07.920Z,0.00
2023-01-19T00:54:07.931Z,0.00
2023-01-19T00:55:07.919Z,0.00
2023-01-19T00:56:07.907Z,0.00
2023-01-19T00:57:07.885Z,0.00
2023-01-19T00:58:07.880Z,0.00
2023-01-19T00:59:07.870Z,0.00
2023-01-19T01:00:07.844Z,0.00
2023-01-19T01:01:07.953Z,0.00
2023-01-19T01:02:07.995Z,0.00
2023-01-19T01:03:07.883Z,0.00
2023-01-19T01:04:07.812Z,0.00
2023-01-19T01:05:07.818Z,0.00
2023-01-19T01:06:07.826Z,0.00
2023-01-19T01:07:07.793Z,0.00
2023-01-19T01:08:07.791Z,0.00
2023-01-19T01:09:07.794Z,0.00
2023-01-19T01:10:07.800Z,0.00
2023-01-19T01:11:07.783Z,0.00
2023-01-19T01:12:07.781Z,0.00
2023-01-19T01:13:20.682Z,0.00
2023-01-19T01:14:08.759Z,0.00
2023-01-19T01:15:07.746Z,0.00
2023-01-19T01:16:07.720Z,0.00
2023-01-19T01:17:07.693Z,0.00
2023-01-19T01:18:07.693Z,0.00
2023-01-19T01:19:07.728Z,0.00
2023-01-19T01:20:07.684Z,0.00
2023-01-19T01:21:07.707Z,0.00
2023-01-19T01:22:07.659Z,0.00
2023-01-19T01:23:07.655Z,0.00
2023-01-19T01:24:07.671Z,0.00
2023-01-19T01:25:07.630Z,0.00
2023-01-19T01:26:07.625Z,0.00
2023-01-19T01:27:07.632Z,0.00
2023-01-19T01:28:07.588Z,0.00
2023-01-19T01:29:07.590Z,0.00
2023-01-19T01:30:07.579Z,0.00
2023-01-19T01:31:07.570Z,0.00
2023-01-19T01:32:07.584Z,0.00
2023-01-19T01:33:07.549Z,0.00
2023-01-19T01:34:07.558Z,0.00
2023-01-19T01:35:07.549Z,0.00
2023-01-19T01:36:07.541Z,0.00
2023-01-19T01:37:07.505Z,0.00
2023-01-19T01:38:07.512Z,0.00
2023-01-19T01:39:07.516Z,0.00
2023-01-19T01:40:07.488Z,0.00
2023-01-19T01:41:07.493Z,0.00
2023-01-19T01:42:07.465Z,0.00
2023-01-19T01:43:07.455Z,0.00
2023-01-19T01:44:07.477Z,0.00
2023-01-19T01:45:07.460Z,0.00
2023-01-19T01:46:07.469Z,0.00
2023-01-19T01:47:07.499Z,0.00
2023-01-19T01:48:07.472Z,0.00
2023-01-19T01:49:39.341Z,0.00
2023-01-19T01:50:07.414Z,0.00
2023-01-19T01:51:07.388Z,0.00
2023-01-19T01:52:07.372Z,0.00
2023-01-19T01:53:08.239Z,0.00
2023-01-19T01:54:08.365Z,0.00
2023-01-19T01:55:07.374Z,0.00
2023-01-19T01:56:07.352Z,0.00
2023-01-19T01:57:07.343Z,0.00
2023-01-19T01:58:07.316Z,0.00
2023-01-19T01:59:07.310Z,0.00
2023-01-19T02:00:07.307Z,0.00
2023-01-19T02:01:07.387Z,0.00
2023-01-19T02:02:07.327Z,0.00
2023-01-19T02:03:07.295Z,0.00
2023-01-19T02:04:07.257Z,0.00
2023-01-19T02:05:07.252Z,0.00
2023-01-19T02:06:07.239Z,0.00
2023-01-19T02:07:07.221Z,0.00
2023-01-19T02:08:07.219Z,0.00
2023-01-19T02:09:07.209Z,0.00
2023-01-19T02:10:07.220Z,0.00
2023-01-19T02:11:07.190Z,0.00
2023-01-19T02:12:07.188Z,0.00
2023-01-19T02:13:07.163Z,0.00
2023-01-19T02:14:07.145Z,0.00
2023-01-19T02:15:07.151Z,0.00
2023-01-19T02:16:07.145Z,0.00
2023-01-19T02:17:07.152Z,0.00
2023-01-19T02:18:07.124Z,0.00
2023-01-19T02:19:07.118Z,0.00
2023-01-19T02:20:07.105Z,0.00
2023-01-19T02:21:07.105Z,0.00
2023-01-19T02:22:07.084Z,0.00
2023-01-19T02:23:07.091Z,0.00
2023-01-19T02:24:07.071Z,0.00
2023-01-19T02:25:07.059Z,0.00
2023-01-19T02:26:07.067Z,0.00
2023-01-19T02:27:07.035Z,0.00
2023-01-19T02:28:07.042Z,0.00
2023-01-19T02:29:07.018Z,0.00
2023-01-19T02:30:06.990Z,0.00
2023-01-19T02:31:08.058Z,0.00
2023-01-19T02:32:06.989Z,0.00
2023-01-19T02:33:06.977Z,0.00
2023-01-19T02:34:06.964Z,0.00
2023-01-19T02:35:06.959Z,0.00
2023-01-19T02:36:06.968Z,0.00
2023-01-19T02:37:06.927Z,0.00
2023-01-19T02:38:06.924Z,0.00
2023-01-19T02:39:06.922Z,0.00
2023-01-19T02:40:06.908Z,0.00
2023-01-19T02:41:06.930Z,0.00
2023-01-19T02:42:06.893Z,0.00
2023-01-19T02:43:06.884Z,0.00
2023-01-19T02:44:06.884Z,0.00
2023-01-19T02:45:06.893Z,0.00
2023-01-19T02:46:06.885Z,0.00
2023-01-19T02:47:06.840Z,0.00
2023-01-19T02:48:06.861Z,0.00
2023-01-19T02:49:06.815Z,0.00
2023-01-19T02:50:06.815Z,0.00
2023-01-19T02:51:06.809Z,0.00
2023-01-19T02:52:06.785Z,0.00
2023-01-19T02:53:06.809Z,0.00
2023-01-19T02:54:06.769Z,0.00
2023-01-19T02:55:06.762Z,0.00
2023-01-19T02:56:06.754Z,0.00
2023-01-19T02:57:06.740Z,0.00
2023-01-19T02:58:06.757Z,0.00
2023-01-19T02:59:06.744Z,0.00
2023-01-19T03:00:06.729Z,0.00
2023-01-19T03:01:06.813Z,0.00
2023-01-19T03:02:06.796Z,0.00
2023-01-19T03:03:06.722Z,0.00
2023-01-19T03:04:06.698Z,0.00
2023-01-19T03:05:06.675Z,0.00
2023-01-19T03:06:06.664Z,0.00
2023-01-19T03:07:06.660Z,0.00
2023-01-19T03:08:06.659Z,0.00
2023-01-19T03:09:06.650Z,0.00
2023-01-19T03:10:06.633Z,0.00
2023-01-19T03:11:06.645Z,0.00
2023-01-19T03:12:06.616Z,0.00
2023-01-19T03:13:06.606Z,0.00
2023-01-19T03:14:06.595Z,0.00
2023-01-19T03:15:06.582Z,0.00
2023-01-19T03:16:06.639Z,0.00
2023-01-19T03:17:06.572Z,0.00
2023-01-19T03:18:06.555Z,0.00
2023-01-19T03:19:06.568Z,0.00
2023-01-19T03:20:06.552Z,0.00
2023-01-19T03:21:06.550Z,0.00
2023-01-19T03:22:06.535Z,0.00
2023-01-19T03:23:06.518Z,0.00
2023-01-19T03:24:06.517Z,0.00
2023-01-19T03:25:06.506Z,0.00
2023-01-19T03:26:06.486Z,0.00
2023-01-19T03:27:06.511Z,0.00
2023-01-19T03:28:06.479Z,0.00
2023-01-19T03:29:06.464Z,0.00
2023-01-19T03:30:06.456Z,0.00
2023-01-19T03:31:06.471Z,0.00
2023-01-19T03:32:06.426Z,0.00
2023-01-19T03:33:06.449Z,0.00
2023-01-19T03:34:06.423Z,0.00
2023-01-19T03:35:06.412Z,0.00
2023-01-19T03:36:06.391Z,0.00
2023-01-19T03:37:06.390Z,0.00
2023-01-19T03:38:06.370Z,0.00
2023-01-19T03:39:06.369Z,0.00
2023-01-19T03:40:06.382Z,0.00
2023-01-19T03:41:06.374Z,0.00
2023-01-19T03:42:06.335Z,0.00
2023-01-19T03:43:06.365Z,0.00
2023-01-19T03:44:06.339Z,0.00
2023-01-19T03:45:06.308Z,0.00
2023-01-19T03:46:06.331Z,0.00
2023-01-19T03:47:06.328Z,0.00
2023-01-19T03:48:06.279Z,0.00
2023-01-19T03:49:06.269Z,0.00
2023-01-19T03:50:06.264Z,0.00
2023-01-19T03:51:06.278Z,0.00
2023-01-19T03:52:06.293Z,0.00
2023-01-19T03:53:06.243Z,0.00
2023-01-19T03:54:06.224Z,0.00
2023-01-19T03:55:06.227Z,0.00
2023-01-19T03:56:06.224Z,0.00
2023-01-19T03:57:06.224Z,0.00
2023-01-19T03:58:06.210Z,0.00
2023-01-19T03:59:06.180Z,0.00
2023-01-19T04:00:06.182Z,0.00
2023-01-19T04:01:06.257Z,0.00
2023-01-19T04:02:06.230Z,0.00
2023-01-19T04:03:06.183Z,0.00
2023-01-19T04:04:06.154Z,0.00
2023-01-19T04:05:06.123Z,0.00
2023-01-19T04:06:06.122Z,0.00
2023-01-19T04:07:06.101Z,0.00
2023-01-19T04:08:06.130Z,0.00
2023-01-19T04:09:06.091Z,0.00
2023-01-19T04:10:06.064Z,0.00
2023-01-19T04:11:06.074Z,0.00
2023-01-19T04:12:06.051Z,0.00
2023-01-19T04:13:06.082Z,0.00
2023-01-19T04:14:06.044Z,0.00
2023-01-19T04:15:06.023Z,0.00
2023-01-19T04:16:06.121Z,0.00
2023-01-19T04:17:06.007Z,0.00
2023-01-19T04:18:05.994Z,0.00
2023-01-19T04:19:05.987Z,0.00
2023-01-19T04:20:05.996Z,0.00
2023-01-19T04:21:05.999Z,0.00
2023-01-19T04:22:05.973Z,0.00
2023-01-19T04:23:05.947Z,0.00
2023-01-19T04:24:06.943Z,0.00
2023-01-19T04:25:05.937Z,0.00
2023-01-19T04:26:05.934Z,0.00
2023-01-19T04:27:05.940Z,0.00
2023-01-19T04:28:05.908Z,0.00
2023-01-19T04:29:05.898Z,0.00
2023-01-19T04:30:05.876Z,0.00
2023-01-19T04:31:05.944Z,0.00
2023-01-19T04:32:05.885Z,0.00
2023-01-19T04:33:05.941Z,0.00
2023-01-19T04:34:05.866Z,0.00
2023-01-19T04:35:05.849Z,0.00
2023-01-19T04:36:05.834Z,0.00
2023-01-19T04:37:05.834Z,0.00
2023-01-19T04:38:05.804Z,0.00
2023-01-19T04:39:05.798Z,0.00
2023-01-19T04:40:05.790Z,0.00
2023-01-19T04:41:05.794Z,0.00
2023-01-19T04:42:05.763Z,0.00
2023-01-19T04:43:05.766Z,0.00
2023-01-19T04:44:05.736Z,0.00
2023-01-19T04:45:05.730Z,0.00
2023-01-19T04:46:05.803Z,0.00
2023-01-19T04:47:05.738Z,0.00
2023-01-19T04:48:05.699Z,0.00
2023-01-19T04:49:05.702Z,0.00
2023-01-19T04:50:05.707Z,0.00
2023-01-19T04:51:05.698Z,0.00
2023-01-19T04:52:05.666Z,0.00
2023-01-19T04:53:05.655Z,0.00
2023-01-19T04:54:05.667Z,0.00
2023-01-19T04:55:05.633Z,0.00
2023-01-19T04:56:05.655Z,0.00
2023-01-19T04:57:05.618Z,0.00
2023-01-19T04:58:05.612Z,0.00
2023-01-19T04:59:05.597Z,0.00
2023-01-19T05:00:05.579Z,0.00
2023-01-19T05:01:05.663Z,0.00
2023-01-19T05:02:05.617Z,0.00
2023-01-19T05:03:06.065Z,0.00
2023-01-19T05:04:05.551Z,0.00
2023-01-19T05:05:05.549Z,0.00
2023-01-19T05:06:05.526Z,0.00
2023-01-19T05:07:05.518Z,0.00
2023-01-19T05:08:05.536Z,0.00
2023-01-19T05:09:05.510Z,0.00
2023-01-19T05:10:05.490Z,0.00
2023-01-19T05:11:05.505Z,0.00
2023-01-19T05:12:05.469Z,0.00
2023-01-19T05:13:05.476Z,0.00
2023-01-19T05:14:05.483Z,0.00
2023-01-19T05:15:05.474Z,0.00
2023-01-19T05:16:05.459Z,0.00
2023-01-19T05:17:05.429Z,0.00
2023-01-19T05:18:05.423Z,0.00
2023-01-19T05:19:05.420Z,0.00
2023-01-19T05:20:05.483Z,0.00
2023-01-19T05:21:05.417Z,0.00
2023-01-19T05:22:05.389Z,0.00
2023-01-19T05:23:05.376Z,0.00
2023-01-19T05:24:05.392Z,0.00
2023-01-19T05:25:05.363Z,0.00
2023-01-19T05:26:05.354Z,0.00
2023-01-19T05:27:05.337Z,0.00
2023-01-19T05:28:05.346Z,0.00
2023-01-19T05:29:05.324Z,0.00
2023-01-19T05:30:05.309Z,0.00
2023-01-19T05:31:05.399Z,0.00
2023-01-19T05:32:05.344Z,0.00
2023-01-19T05:33:05.282Z,0.00
2023-01-19T05:34:05.259Z,0.00
2023-01-19T05:35:05.281Z,0.00
2023-01-19T05:36:05.252Z,0.00
2023-01-19T05:37:05.246Z,0.00
2023-01-19T05:38:05.266Z,0.00
2023-01-19T05:39:05.227Z,0.00
2023-01-19T05:40:05.220Z,0.00
2023-01-19T05:41:05.214Z,0.00
2023-01-19T05:42:05.221Z,0.00
2023-01-19T05:43:05.552Z,0.00
2023-01-19T05:44:05.176Z,0.00
2023-01-19T05:45:05.168Z,0.00
2023-01-19T05:46:05.179Z,0.00
2023-01-19T05:47:05.155Z,0.00
2023-01-19T05:48:05.186Z,0.00
2023-01-19T05:49:05.258Z,0.00
2023-01-19T05:50:05.151Z,0.00
2023-01-19T05:51:05.116Z,0.00
2023-01-19T05:52:05.104Z,0.00
2023-01-19T05:53:05.139Z,0.00
2023-01-19T05:54:05.096Z,0.00
2023-01-19T05:55:05.067Z,0.00
2023-01-19T05:56:05.075Z,0.00
2023-01-19T05:57:05.053Z,0.00
2023-01-19T05:58:05.043Z,0.00
2023-01-19T05:59:05.340Z,0.00
2023-01-19T06:00:05.022Z,0.00
2023-01-19T06:01:05.037Z,0.00
2023-01-19T06:02:05.026Z,0.00
2023-01-19T06:03:05.355Z,0.00
2023-01-19T06:04:05.005Z,0.00
2023-01-19T06:05:04.977Z,0.00
2023-01-19T06:06:04.971Z,0.00
2023-01-19T06:07:04.970Z,0.00
2023-01-19T06:08:04.945Z,0.00
2023-01-19T06:09:04.954Z,0.00
2023-01-19T06:10:04.953Z,0.00
2023-01-19T06:11:04.921Z,0.00
2023-01-19T06:12:04.906Z,0.00
2023-01-19T06:13:04.895Z,0.00
2023-01-19T06:14:04.891Z,0.00
2023-01-19T06:15:04.892Z,0.00
2023-01-19T06:16:04.935Z,0.00
2023-01-19T06:17:04.862Z,0.00
2023-01-19T06:18:04.843Z,0.00
2023-01-19T06:19:04.838Z,0.00
2023-01-19T06:20:04.893Z,0.00
2023-01-19T06:21:04.829Z,0.00
2023-01-19T06:22:04.858Z,0.00
2023-01-19T06:23:04.807Z,0.00
2023-01-19T06:24:04.801Z,0.00
2023-01-19T06:25:04.786Z,0.00
2023-01-19T06:26:04.768Z,0.00
2023-01-19T06:27:04.784Z,0.00
2023-01-19T06:28:04.779Z,0.00
2023-01-19T06:29:04.737Z,0.00
2023-01-19T06:30:04.744Z,0.00
2023-01-19T06:31:04.796Z,0.00
2023-01-19T06:32:04.763Z,0.00
2023-01-19T06:33:04.726Z,0.00
2023-01-19T06:34:04.701Z,0.00
2023-01-19T06:35:04.679Z,0.00
2023-01-19T06:36:04.667Z,0.00
2023-01-19T06:37:04.667Z,0.00
2023-01-19T06:38:04.657Z,0.00
2023-01-19T06:39:04.668Z,0.00
2023-01-19T06:40:04.654Z,0.00
2023-01-19T06:41:04.633Z,0.00
2023-01-19T06:42:04.633Z,0.00
2023-01-19T06:43:04.601Z,0.00
2023-01-19T06:44:04.612Z,4.00
2023-01-19T06:45:04.603Z,4.00
2023-01-19T06:46:04.652Z,4.00
2023-01-19T06:47:15.637Z,4.00
2023-01-19T06:48:05.571Z,4.00
2023-01-19T06:49:04.585Z,0.00
2023-01-19T06:50:04.546Z,4.00
2023-01-19T06:51:04.521Z,4.00
2023-01-19T06:52:04.514Z,4.00
2023-01-19T06:53:04.534Z,4.00
2023-01-19T06:54:04.505Z,8.00
2023-01-19T06:55:04.497Z,8.00
2023-01-19T06:56:04.800Z,8.00
2023-01-19T06:57:04.486Z,12.00
2023-01-19T06:58:04.490Z,8.00
2023-01-19T06:59:04.473Z,12.00
2023-01-19T07:00:04.507Z,12.00
2023-01-19T07:01:04.586Z,16.00
2023-01-19T07:02:26.529Z,20.00
2023-01-19T07:03:05.490Z,16.00
2023-01-19T07:04:04.441Z,24.00
2023-01-19T07:05:04.436Z,20.00
2023-01-19T07:06:04.392Z,24.00
2023-01-19T07:07:04.379Z,28.00
2023-01-19T07:08:04.409Z,32.00
2023-01-19T07:09:04.357Z,32.00
2023-01-19T07:10:05.347Z,40.00
2023-01-19T07:11:25.800Z,40.00
2023-01-19T07:12:04.332Z,48.00
2023-01-19T07:13:04.668Z,52.00
2023-01-19T07:14:04.320Z,56.00
2023-01-19T07:15:04.318Z,60.00
2023-01-19T07:16:04.326Z,64.00
2023-01-19T07:17:04.274Z,76.00
2023-01-19T07:18:04.274Z,80.00
2023-01-19T07:19:04.294Z,92.00
2023-01-19T07:20:04.280Z,92.00
2023-01-19T07:21:04.258Z,108.00
2023-01-19T07:22:04.236Z,116.00
2023-01-19T07:23:04.246Z,120.00
2023-01-19T07:24:04.261Z,128.00
2023-01-19T07:25:04.234Z,132.00
2023-01-19T07:26:04.205Z,136.00
2023-01-19T07:27:04.197Z,148.00
2023-01-19T07:28:04.209Z,176.00
2023-01-19T07:29:04.181Z,192.00
2023-01-19T07:30:04.169Z,212.00
2023-01-19T07:31:04.264Z,236.00
2023-01-19T07:32:04.155Z,252.00
2023-01-19T07:33:04.322Z,268.00
2023-01-19T07:34:04.127Z,288.00
2023-01-19T07:35:05.125Z,340.00
2023-01-19T07:36:04.122Z,388.00
2023-01-19T07:37:04.101Z,428.00
2023-01-19T07:38:04.113Z,384.00
2023-01-19T07:39:04.107Z,408.00
2023-01-19T07:40:04.158Z,436.00
2023-01-19T07:41:04.068Z,472.00
2023-01-19T07:42:04.051Z,536.00
2023-01-19T07:43:04.365Z,540.00
2023-01-19T07:44:04.026Z,480.00
2023-01-19T07:45:04.095Z,516.00
2023-01-19T07:46:04.037Z,544.00
2023-01-19T07:47:05.000Z,524.00
2023-01-19T07:48:04.001Z,476.00
2023-01-19T07:49:03.986Z,480.00
2023-01-19T07:50:35.955Z,552.00
2023-01-19T07:51:03.983Z,632.00
2023-01-19T07:52:03.965Z,760.00
2023-01-19T07:53:03.968Z,820.00
2023-01-19T07:54:03.965Z,792.00
2023-01-19T07:55:03.961Z,764.00
2023-01-19T07:56:03.937Z,840.00
2023-01-19T07:57:03.925Z,964.00
2023-01-19T07:58:03.935Z,880.00
2023-01-19T07:59:03.908Z,836.00
2023-01-19T08:00:03.906Z,772.00
2023-01-19T08:01:03.960Z,732.00
2023-01-19T08:02:04.037Z,768.00
2023-01-19T08:03:04.345Z,832.00
2023-01-19T08:04:03.885Z,852.00
2023-01-19T08:05:03.858Z,848.00
2023-01-19T08:06:03.824Z,828.00
2023-01-19T08:07:03.840Z,912.00
2023-01-19T08:08:03.846Z,888.00
2023-01-19T08:09:03.889Z,1020.00
2023-01-19T08:10:03.804Z,1296.00
2023-01-19T08:11:03.790Z,1124.00
2023-01-19T08:12:03.806Z,976.00
2023-01-19T08:13:04.019Z,1068.00
2023-01-19T08:14:05.254Z,1392.00
2023-01-19T08:15:03.744Z,1464.00
2023-01-19T08:16:03.833Z,1328.00
2023-01-19T08:17:03.753Z,1276.00
2023-01-19T08:18:03.725Z,1284.00
2023-01-19T08:19:03.714Z,1312.00
2023-01-19T08:20:03.700Z,1224.00
2023-01-19T08:21:03.715Z,1456.00
2023-01-19T08:22:03.681Z,1500.00
2023-01-19T08:23:04.167Z,2488.00
2023-01-19T08:24:03.709Z,1556.00
2023-01-19T08:25:03.660Z,1968.00
2023-01-19T08:26:03.682Z,1840.00
2023-01-19T08:27:03.662Z,1832.00
2023-01-19T08:28:03.630Z,1992.00
2023-01-19T08:29:03.649Z,1964.00
2023-01-19T08:30:03.643Z,2204.00
2023-01-19T08:31:18.704Z,2648.00
2023-01-19T08:32:04.689Z,2736.00
2023-01-19T08:33:03.793Z,2504.00
2023-01-19T08:34:03.640Z,2788.00
2023-01-19T08:35:03.561Z,2836.00
2023-01-19T08:36:03.562Z,3128.00
2023-01-19T08:37:03.569Z,4404.00
2023-01-19T08:38:03.550Z,3080.00
2023-01-19T08:39:03.590Z,3348.00
2023-01-19T08:40:03.617Z,3080.00
2023-01-19T08:41:03.649Z,3860.00
2023-01-19T08:42:03.597Z,9392.00
2023-01-19T08:43:03.866Z,4480.00
2023-01-19T08:44:03.539Z,5508.00
2023-01-19T08:45:03.483Z,5108.00
2023-01-19T08:46:03.508Z,4644.00
2023-01-19T08:47:03.529Z,5192.00
2023-01-19T08:48:03.431Z,6580.00
2023-01-19T08:49:03.483Z,5592.00
2023-01-19T08:50:03.415Z,5420.00
2023-01-19T08:51:03.450Z,8756.00
2023-01-19T08:52:03.444Z,5492.00
2023-01-19T08:53:03.664Z,6552.00
2023-01-19T08:54:03.384Z,4468.00
2023-01-19T08:55:03.370Z,3724.00
2023-01-19T08:56:03.362Z,3100.00
2023-01-19T08:57:03.397Z,2908.00
2023-01-19T08:58:03.636Z,2908.00
2023-01-19T08:59:09.897Z,2664.00
2023-01-19T09:00:04.342Z,2396.00
2023-01-19T09:01:04.261Z,2244.00
2023-01-19T09:02:03.484Z,2084.00
2023-01-19T09:03:03.907Z,1992.00
2023-01-19T09:04:03.411Z,1948.00
2023-01-19T09:05:03.335Z,1908.00
2023-01-19T09:06:03.336Z,2140.00
2023-01-19T09:07:03.305Z,2232.00
2023-01-19T09:08:03.674Z,2128.00
2023-01-19T09:09:03.262Z,2200.00
2023-01-19T09:10:03.253Z,2344.00
2023-01-19T09:11:03.243Z,2340.00
2023-01-19T09:12:03.225Z,2436.00
2023-01-19T09:13:03.217Z,2768.00
2023-01-19T09:14:03.203Z,2916.00
2023-01-19T09:15:03.193Z,3372.00
2023-01-19T09:16:03.276Z,4180.00
2023-01-19T09:17:03.169Z,4752.00
2023-01-19T09:18:03.498Z,4736.00
2023-01-19T09:19:03.159Z,5324.00
2023-01-19T09:20:03.152Z,6212.00
2023-01-19T09:21:03.152Z,6924.00
2023-01-19T09:22:03.143Z,6748.00
2023-01-19T09:23:03.114Z,6692.00
2023-01-19T09:24:03.101Z,7216.00
2023-01-19T09:25:03.096Z,7404.00
2023-01-19T09:26:03.092Z,7708.00
2023-01-19T09:27:03.097Z,7924.00
2023-01-19T09:28:03.422Z,7784.00
2023-01-19T09:29:03.058Z,8448.00
2023-01-19T09:30:03.095Z,8860.00
2023-01-19T09:31:03.113Z,8308.00
2023-01-19T09:32:03.051Z,9104.00
2023-01-19T09:33:03.029Z,9224.00
2023-01-19T09:34:03.022Z,8184.00
2023-01-19T09:35:03.020Z,8260.00
2023-01-19T09:36:03.022Z,8080.00
2023-01-19T09:37:03.019Z,7684.00
2023-01-19T09:38:03.437Z,8004.00
2023-01-19T09:39:02.973Z,7752.00
2023-01-19T09:40:03.051Z,7476.00
2023-01-19T09:41:02.970Z,6992.00
2023-01-19T09:42:02.934Z,6528.00
2023-01-19T09:43:02.942Z,5676.00
2023-01-19T09:44:02.994Z,5616.00
2023-01-19T09:45:02.967Z,4848.00
2023-01-19T09:46:03.947Z,3840.00
2023-01-19T09:47:02.881Z,3328.00
2023-01-19T09:48:03.179Z,3212.00
2023-01-19T09:49:02.896Z,3200.00
2023-01-19T09:50:02.886Z,3176.00
2023-01-19T09:51:02.850Z,3612.00
2023-01-19T09:52:02.900Z,3724.00
2023-01-19T09:53:03.123Z,3416.00
2023-01-19T09:54:02.854Z,3192.00
2023-01-19T09:55:02.800Z,3124.00
2023-01-19T09:56:02.840Z,2876.00
2023-01-19T09:57:02.805Z,2884.00
2023-01-19T09:58:03.148Z,2960.00
2023-01-19T09:59:02.771Z,2828.00
2023-01-19T10:00:02.771Z,2508.00
2023-01-19T10:01:02.853Z,2236.00
2023-01-19T10:02:02.795Z,2168.00
2023-01-19T10:03:03.267Z,2120.00
2023-01-19T10:04:02.752Z,2464.00
2023-01-19T10:05:02.754Z,2376.00
2023-01-19T10:06:02.739Z,2388.00
2023-01-19T10:07:02.695Z,2384.00
2023-01-19T10:08:03.136Z,2536.00
2023-01-19T10:09:02.698Z,2388.00
2023-01-19T10:10:02.720Z,2140.00
2023-01-19T10:11:02.653Z,1972.00
2023-01-19T10:12:03.654Z,1980.00
2023-01-19T10:13:02.956Z,1904.00
2023-01-19T10:14:02.637Z,2004.00
2023-01-19T10:15:02.622Z,2148.00
2023-01-19T10:16:02.684Z,2268.00
2023-01-19T10:17:02.604Z,2304.00
2023-01-19T10:18:03.868Z,2744.00
2023-01-19T10:19:02.592Z,2792.00
2023-01-19T10:20:02.579Z,2448.00
2023-01-19T10:21:04.629Z,2644.00
2023-01-19T10:22:02.551Z,2296.00
2023-01-19T10:23:02.947Z,2132.00
2023-01-19T10:24:03.349Z,1976.00
2023-01-19T10:25:02.580Z,1860.00
2023-01-19T10:26:02.528Z,1832.00
2023-01-19T10:27:02.533Z,1788.00
2023-01-19T10:28:02.513Z,1856.00
2023-01-19T10:29:02.552Z,1924.00
2023-01-19T10:30:02.568Z,1892.00
2023-01-19T10:31:02.593Z,1880.00
2023-01-19T10:32:02.599Z,1932.00
2023-01-19T10:33:02.856Z,1928.00
2023-01-19T10:34:02.476Z,1924.00
2023-01-19T10:35:02.486Z,2072.00
2023-01-19T10:36:02.570Z,2124.00
2023-01-19T10:37:02.403Z,2128.00
2023-01-19T10:38:02.406Z,2316.00
2023-01-19T10:39:02.425Z,2532.00
2023-01-19T10:40:02.434Z,2888.00
2023-01-19T10:41:02.447Z,2924.00
2023-01-19T10:42:02.394Z,2900.00
2023-01-19T10:43:02.764Z,2908.00
2023-01-19T10:44:02.362Z,2692.00
2023-01-19T10:45:02.331Z,2504.00
2023-01-19T10:46:02.447Z,2188.00
2023-01-19T10:47:02.348Z,1948.00
2023-01-19T10:48:02.355Z,1836.00
2023-01-19T10:49:02.386Z,1840.00
2023-01-19T10:50:02.301Z,1812.00
2023-01-19T10:51:02.312Z,1968.00
2023-01-19T10:52:02.279Z,2204.00
2023-01-19T10:53:02.688Z,2080.00
2023-01-19T10:54:02.358Z,2184.00
2023-01-19T10:55:02.335Z,2140.00
2023-01-19T10:56:02.285Z,2084.00
2023-01-19T10:57:02.260Z,2024.00
2023-01-19T10:58:02.219Z,2012.00
2023-01-19T10:59:02.208Z,2184.00
2023-01-19T11:00:02.216Z,2356.00
2023-01-19T11:01:02.235Z,2372.00
2023-01-19T11:02:02.332Z,2324.00
2023-01-19T11:03:02.586Z,2396.00
2023-01-19T11:04:02.152Z,2188.00
2023-01-19T11:05:02.199Z,2208.00
2023-01-19T11:06:02.148Z,2228.00
2023-01-19T11:07:02.131Z,2028.00
2023-01-19T11:08:02.132Z,1980.00
2023-01-19T11:09:02.148Z,2100.00
2023-01-19T11:10:02.089Z,2236.00
2023-01-19T11:11:02.091Z,2368.00
2023-01-19T11:12:02.077Z,2556.00
2023-01-19T11:13:02.514Z,2676.00
2023-01-19T11:14:02.092Z,2984.00
2023-01-19T11:15:02.050Z,3244.00
2023-01-19T11:16:02.086Z,3284.00
2023-01-19T11:17:02.028Z,3408.00
2023-01-19T11:18:02.023Z,3540.00
2023-01-19T11:19:02.043Z,4100.00
2023-01-19T11:20:02.021Z,4288.00
2023-01-19T11:21:01.988Z,4972.00
2023-01-19T11:22:01.992Z,5320.00
2023-01-19T11:23:02.278Z,5156.00
2023-01-19T11:24:01.972Z,5192.00
2023-01-19T11:25:01.962Z,4396.00
2023-01-19T11:26:01.990Z,3640.00
2023-01-19T11:27:01.926Z,3148.00
2023-01-19T11:28:01.937Z,3172.00
2023-01-19T11:29:01.902Z,3676.00
2023-01-19T11:30:01.893Z,4380.00
2023-01-19T11:31:01.971Z,4724.00
2023-01-19T11:32:01.883Z,5192.00
2023-01-19T11:33:02.270Z,5920.00
2023-01-19T11:34:01.858Z,5808.00
2023-01-19T11:35:01.852Z,5344.00
2023-01-19T11:36:01.864Z,5208.00
2023-01-19T11:37:01.832Z,4044.00
2023-01-19T11:38:01.853Z,3748.00
2023-01-19T11:39:01.808Z,3296.00
2023-01-19T11:40:01.807Z,2748.00
2023-01-19T11:41:01.796Z,2388.00
2023-01-19T11:42:01.783Z,2356.00
2023-01-19T11:43:02.172Z,2324.00
2023-01-19T11:44:01.757Z,2224.00
2023-01-19T11:45:01.751Z,2332.00
2023-01-19T11:46:01.773Z,2520.00
2023-01-19T11:47:01.738Z,2692.00
2023-01-19T11:48:02.231Z,2364.00
2023-01-19T11:49:01.721Z,2372.00
2023-01-19T11:50:01.711Z,2376.00
2023-01-19T11:51:01.717Z,2272.00
2023-01-19T11:52:01.693Z,2256.00
2023-01-19T11:53:01.684Z,2104.00
2023-01-19T11:54:01.665Z,2288.00
2023-01-19T11:55:01.666Z,2408.00
2023-01-19T11:56:01.674Z,2448.00
2023-01-19T11:57:01.643Z,2448.00
2023-01-19T11:58:02.031Z,2560.00
2023-01-19T11:59:01.642Z,2816.00
2023-01-19T12:00:01.645Z,3256.00
2023-01-19T12:01:01.653Z,3816.00
2023-01-19T12:02:01.635Z,3656.00
2023-01-19T12:03:01.615Z,3460.00
2023-01-19T12:04:01.607Z,3532.00
2023-01-19T12:05:01.591Z,3804.00
2023-01-19T12:06:01.550Z,3416.00
2023-01-19T12:07:01.557Z,3260.00
2023-01-19T12:08:03.054Z,3084.00
2023-01-19T12:09:01.516Z,3324.00
2023-01-19T12:10:01.608Z,3656.00
2023-01-19T12:11:01.530Z,3684.00
2023-01-19T12:12:01.560Z,3768.00
2023-01-19T12:13:01.492Z,3920.00
2023-01-19T12:14:01.487Z,3928.00
2023-01-19T12:15:01.474Z,3808.00
2023-01-19T12:16:01.457Z,3584.00
2023-01-19T12:17:01.480Z,3536.00
2023-01-19T12:18:01.825Z,3500.00
2023-01-19T12:19:01.434Z,3448.00
2023-01-19T12:20:01.490Z,3504.00
2023-01-19T12:21:03.986Z,3684.00
2023-01-19T12:22:02.399Z,3808.00
2023-01-19T12:23:01.403Z,4096.00
2023-01-19T12:24:01.455Z,3604.00
2023-01-19T12:25:01.414Z,3244.00
2023-01-19T12:26:01.386Z,2988.00
2023-01-19T12:27:01.357Z,3092.00
2023-01-19T12:28:01.359Z,3604.00
2023-01-19T12:29:01.319Z,3780.00
2023-01-19T12:30:01.332Z,4016.00
2023-01-19T12:31:01.384Z,4280.00
2023-01-19T12:32:01.477Z,4568.00
2023-01-19T12:33:01.329Z,4252.00
2023-01-19T12:34:01.276Z,4120.00
2023-01-19T12:35:01.269Z,4296.00
2023-01-19T12:36:01.295Z,4676.00
2023-01-19T12:37:01.282Z,4708.00
2023-01-19T12:38:01.251Z,5104.00
2023-01-19T12:39:01.255Z,4908.00
2023-01-19T12:40:01.229Z,4976.00
2023-01-19T12:41:01.245Z,5080.00
2023-01-19T12:42:01.204Z,5588.00
2023-01-19T12:43:01.260Z,5924.00
2023-01-19T12:44:01.188Z,5712.00
2023-01-19T12:45:01.170Z,5284.00
2023-01-19T12:46:01.184Z,5516.00